createdAt,value
2017-11-16T00:00:00.244Z,73.80
2017-11-16T00:02:28.416Z,73.40
2017-11-16T00:05:00.275Z,73.40
2017-11-16T00:07:28.447Z,75.00
2017-11-16T00:09:56.643Z,74.70
2017-11-16T00:12:24.798Z,75.50
2017-11-16T00:14:55.010Z,76.40
2017-11-16T00:17:23.190Z,76.30
2017-11-16T00:19:51.362Z,75.70
2017-11-16T00:22:19.542Z,75.20
2017-11-16T00:24:48.726Z,73.80
2017-11-16T00:27:16.895Z,73.20
2017-11-16T00:29:45.062Z,73.30
2017-11-16T00:32:15.211Z,72.30
2017-11-16T00:34:44.507Z,72.30
2017-11-16T00:37:12.675Z,71.20
2017-11-16T00:39:40.820Z,69.70
2017-11-16T00:42:09.001Z,72.20
2017-11-16T00:44:38.048Z,73.60
2017-11-16T00:47:07.588Z,73.50
2017-11-16T00:49:35.769Z,74.10
2017-11-16T00:52:03.927Z,75.70
2017-11-16T00:54:32.139Z,74.80
2017-11-16T00:57:00.319Z,77.50
2017-11-16T00:59:29.262Z,76.10
2017-11-16T01:01:57.434Z,76.50
2017-11-16T01:04:29.548Z,76.40
2017-11-16T01:06:58.030Z,76.70
2017-11-16T01:09:32.618Z,75.20
2017-11-16T01:12:00.779Z,73.70
2017-11-16T01:14:29.017Z,72.70
2017-11-16T01:16:57.173Z,72.70
2017-11-16T01:19:26.131Z,73.70
2017-11-16T01:21:54.293Z,73.20
2017-11-16T01:24:26.840Z,74.30
2017-11-16T01:26:54.995Z,74.90
2017-11-16T01:29:26.237Z,74.30
2017-11-16T01:31:54.412Z,72.20
2017-11-16T01:34:28.338Z,71.40
2017-11-16T01:36:56.488Z,70.60
2017-11-16T01:39:39.346Z,69.60
2017-11-16T01:42:07.526Z,69.60
2017-11-16T01:44:35.763Z,71.30
2017-11-16T01:47:03.949Z,72.40
2017-11-16T01:49:32.114Z,71.00
2017-11-16T01:52:00.269Z,70.20
2017-11-16T01:54:28.470Z,71.90
2017-11-16T01:56:56.636Z,69.40
2017-11-16T01:59:24.819Z,70.50
2017-11-16T02:01:52.985Z,70.20
2017-11-16T02:04:22.202Z,71.90
2017-11-16T02:06:50.362Z,72.70
2017-11-16T02:09:18.530Z,74.00
2017-11-16T02:11:46.805Z,74.50
2017-11-16T02:14:15.094Z,76.10
2017-11-16T02:16:43.261Z,77.50
2017-11-16T02:19:11.429Z,76.40
2017-11-16T02:21:40.384Z,73.70
2017-11-16T02:24:08.612Z,72.30
2017-11-16T02:26:36.762Z,73.40
2017-11-16T02:29:05.066Z,72.90
2017-11-16T02:31:33.239Z,71.40
2017-11-16T02:34:01.511Z,71.90
2017-11-16T02:36:29.679Z,71.80
2017-11-16T02:38:57.853Z,71.90
2017-11-16T02:41:26.428Z,72.80
2017-11-16T02:43:54.616Z,72.40
2017-11-16T02:46:22.808Z,71.90
2017-11-16T02:48:50.984Z,71.20
2017-11-16T02:51:19.699Z,70.40
2017-11-16T02:53:47.927Z,70.60
2017-11-16T02:56:16.092Z,68.20
2017-11-16T02:58:44.267Z,65.70
2017-11-16T03:01:13.402Z,65.70
2017-11-16T03:03:43.479Z,67.90
2017-11-16T03:06:11.659Z,69.60
2017-11-16T03:08:39.996Z,70.50
2017-11-16T03:11:08.164Z,71.40
2017-11-16T03:13:36.407Z,72.30
2017-11-16T03:16:04.566Z,71.00
2017-11-16T03:18:33.657Z,73.10
2017-11-16T03:21:01.826Z,73.10
2017-11-16T03:23:31.032Z,72.80
2017-11-16T03:25:59.253Z,73.20
2017-11-16T03:28:28.839Z,71.80
2017-11-16T03:30:57.038Z,71.80
2017-11-16T03:33:34.327Z,70.00
2017-11-16T03:36:02.498Z,67.50
2017-11-16T03:38:31.704Z,67.90
2017-11-16T03:40:59.866Z,68.00
2017-11-16T03:43:28.054Z,67.10
2017-11-16T03:45:56.223Z,67.30
2017-11-16T03:48:24.386Z,67.80
2017-11-16T03:50:52.567Z,69.30
2017-11-16T03:53:20.742Z,69.00
2017-11-16T03:55:48.911Z,68.00
2017-11-16T03:58:17.087Z,66.80
2017-11-16T04:00:45.267Z,64.60
2017-11-16T04:03:14.406Z,64.40
2017-11-16T04:05:42.563Z,63.90
2017-11-16T04:08:10.729Z,61.30
2017-11-16T04:10:38.897Z,60.80
2017-11-16T04:13:07.908Z,64.10
2017-11-16T04:15:36.075Z,64.00
2017-11-16T04:18:04.250Z,62.50
2017-11-16T04:20:32.437Z,63.40
2017-11-16T04:23:00.600Z,64.20
2017-11-16T04:25:28.779Z,64.00
2017-11-16T04:27:56.944Z,64.40
2017-11-16T04:30:25.878Z,66.50
2017-11-16T04:32:54.058Z,66.50
2017-11-16T04:35:22.222Z,65.80
2017-11-16T04:37:50.362Z,66.50
2017-11-16T04:40:18.531Z,65.90
2017-11-16T04:42:46.706Z,68.80
2017-11-16T04:45:15.637Z,69.10
2017-11-16T04:47:43.811Z,69.10
2017-11-16T04:50:11.944Z,69.00
2017-11-16T04:52:40.121Z,69.80
2017-11-16T04:55:08.279Z,69.40
2017-11-16T04:57:36.447Z,67.60
2017-11-16T05:00:04.640Z,69.20
2017-11-16T05:02:33.582Z,68.00
2017-11-16T05:05:01.741Z,68.00
2017-11-16T05:07:29.890Z,66.40
2017-11-16T05:09:58.397Z,66.50
2017-11-16T05:12:26.560Z,65.90
2017-11-16T05:14:54.971Z,66.60
2017-11-16T05:17:24.063Z,66.20
2017-11-16T05:19:52.996Z,66.20
2017-11-16T05:22:21.172Z,67.90
2017-11-16T05:24:55.099Z,68.70
2017-11-16T05:27:24.514Z,67.30
2017-11-16T05:29:53.584Z,67.30
2017-11-16T05:32:21.781Z,67.90
2017-11-16T05:34:51.931Z,66.90
2017-11-16T05:37:20.076Z,67.00
2017-11-16T05:39:48.240Z,67.10
2017-11-16T05:42:16.427Z,67.90
2017-11-16T05:44:46.642Z,68.00
2017-11-16T05:47:15.392Z,68.10
2017-11-16T05:49:43.770Z,67.10
2017-11-16T05:52:11.915Z,67.10
2017-11-16T05:54:40.167Z,66.70
2017-11-16T05:57:08.326Z,67.10
2017-11-16T05:59:57.306Z,67.10
2017-11-16T06:02:25.488Z,67.70
2017-11-16T06:04:57.229Z,67.80
2017-11-16T06:07:25.397Z,67.90
2017-11-16T06:09:53.654Z,68.40
2017-11-16T06:12:22.588Z,68.50
2017-11-16T06:14:54.422Z,68.50
2017-11-16T06:17:23.748Z,67.90
2017-11-16T06:19:52.841Z,67.20
2017-11-16T06:22:22.669Z,66.50
2017-11-16T06:24:50.843Z,66.50
2017-11-16T06:27:19.019Z,66.20
2017-11-16T06:29:47.178Z,65.60
2017-11-16T06:32:15.842Z,67.60
2017-11-16T06:34:44.112Z,68.30
2017-11-16T06:37:12.270Z,67.70
2017-11-16T06:39:40.429Z,69.10
2017-11-16T06:42:08.596Z,68.70
2017-11-16T06:44:37.955Z,68.10
2017-11-16T06:47:06.156Z,68.60
2017-11-16T06:49:34.305Z,69.30
2017-11-16T06:52:03.340Z,70.20
2017-11-16T06:54:42.100Z,70.10
2017-11-16T06:57:11.321Z,71.00
2017-11-16T06:59:39.491Z,71.70
2017-11-16T07:02:07.653Z,72.40
2017-11-16T07:04:35.974Z,71.70
2017-11-16T07:07:04.157Z,72.80
2017-11-16T07:09:32.307Z,73.70
2017-11-16T07:12:00.466Z,72.60
2017-11-16T07:14:45.382Z,70.40
2017-11-16T07:17:17.679Z,70.20
2017-11-16T07:19:46.596Z,68.40
2017-11-16T07:22:14.747Z,68.40
2017-11-16T07:24:44.870Z,68.40
2017-11-16T07:27:13.051Z,67.70
2017-11-16T07:29:41.241Z,66.60
2017-11-16T07:32:10.640Z,66.90
2017-11-16T07:34:51.864Z,65.40
2017-11-16T07:40:25.633Z,65.20
2017-11-16T07:42:55.905Z,66.00
2017-11-16T07:45:24.101Z,64.40
2017-11-16T07:47:53.128Z,64.30
2017-11-16T07:50:21.301Z,63.20
2017-11-16T07:52:49.458Z,62.30
2017-11-16T07:55:18.389Z,63.30
2017-11-16T07:57:46.554Z,63.90
2017-11-16T08:00:15.491Z,62.90
2017-11-16T08:02:43.632Z,64.40
2017-11-16T08:05:11.855Z,67.60
2017-11-16T08:07:40.075Z,68.50
2017-11-16T08:10:08.224Z,67.70
2017-11-16T08:12:36.437Z,68.20
2017-11-16T08:15:05.102Z,67.70
2017-11-16T08:17:33.278Z,66.90
2017-11-16T08:20:01.455Z,66.50
2017-11-16T08:22:29.649Z,66.60
2017-11-16T08:27:52.294Z,65.00
2017-11-16T08:30:20.471Z,63.90
2017-11-16T08:32:53.151Z,62.50
2017-11-16T08:35:22.421Z,62.60
2017-11-16T08:37:51.647Z,64.60
2017-11-16T08:40:20.817Z,66.30
2017-11-16T08:42:48.998Z,65.50
2017-11-16T08:45:17.170Z,64.50
2017-11-16T08:47:46.125Z,64.00
2017-11-16T08:50:15.299Z,64.00
2017-11-16T08:52:44.159Z,63.20
2017-11-16T08:55:12.311Z,62.90
2017-11-16T08:57:41.235Z,62.60
2017-11-16T09:00:10.265Z,61.90
2017-11-16T09:02:38.454Z,62.30
2017-11-16T09:05:06.632Z,62.10
2017-11-16T09:07:34.803Z,61.60
2017-11-16T09:10:03.187Z,60.70
2017-11-16T09:12:31.363Z,60.80
2017-11-16T09:15:01.616Z,60.20
2017-11-16T09:17:29.769Z,59.30
2017-11-16T09:19:58.644Z,59.30
2017-11-16T09:22:26.825Z,59.00
2017-11-16T09:24:55.144Z,58.70
2017-11-16T09:27:23.319Z,59.40
2017-11-16T09:29:51.511Z,58.70
2017-11-16T09:32:21.778Z,56.90
2017-11-16T09:34:50.948Z,57.00
2017-11-16T09:37:19.496Z,56.80
2017-11-16T09:39:48.129Z,57.10
2017-11-16T09:42:16.291Z,56.00
2017-11-16T09:44:46.458Z,56.20
2017-11-16T09:47:15.200Z,55.70
2017-11-16T09:49:43.350Z,55.30
2017-11-16T09:52:11.595Z,55.70
2017-11-16T09:54:45.728Z,54.40
2017-11-16T09:57:13.903Z,54.40
2017-11-16T09:59:42.055Z,53.40
2017-11-16T10:02:10.225Z,51.90
2017-11-16T10:04:38.486Z,52.80
2017-11-16T10:07:06.654Z,53.40
2017-11-16T10:09:34.820Z,53.30
2017-11-16T10:12:02.984Z,52.40
2017-11-16T10:14:31.152Z,51.50
2017-11-16T10:16:59.319Z,51.60
2017-11-16T10:19:27.491Z,52.90
2017-11-16T10:21:55.981Z,51.30
2017-11-16T10:24:41.969Z,51.80
2017-11-16T10:27:23.761Z,51.80
2017-11-16T10:29:51.958Z,49.70
2017-11-16T10:32:21.469Z,49.30
2017-11-16T10:35:02.009Z,51.10
2017-11-16T10:37:43.508Z,52.10
2017-11-16T10:40:11.670Z,50.30
2017-11-16T10:42:53.962Z,50.50
2017-11-16T10:45:22.131Z,51.60
2017-11-16T10:47:51.455Z,48.90
2017-11-16T10:50:19.651Z,50.00
2017-11-16T10:52:47.817Z,49.20
2017-11-16T10:55:16.877Z,48.40
2017-11-16T10:57:46.074Z,49.60
2017-11-16T11:00:14.313Z,49.80
2017-11-16T11:02:42.490Z,50.40
2017-11-16T11:05:10.656Z,48.00
2017-11-16T11:07:38.839Z,49.30
2017-11-16T11:10:07.003Z,49.00
2017-11-16T11:12:39.236Z,50.00
2017-11-16T11:15:07.403Z,48.80
2017-11-16T11:17:35.583Z,51.50
2017-11-16T11:20:03.764Z,48.40
2017-11-16T11:22:31.919Z,50.80
2017-11-16T11:25:00.068Z,50.20
2017-11-16T11:27:29.099Z,49.50
2017-11-16T11:29:57.723Z,50.70
2017-11-16T11:32:27.831Z,51.90
2017-11-16T11:35:02.255Z,53.70
2017-11-16T11:37:44.344Z,53.00
2017-11-16T11:40:13.168Z,51.70
2017-11-16T11:42:45.649Z,52.80
2017-11-16T11:45:13.895Z,51.00
2017-11-16T11:47:56.036Z,51.20
2017-11-16T11:50:32.493Z,51.60
2017-11-16T11:53:20.292Z,50.50
2017-11-16T11:56:01.214Z,49.80
2017-11-16T11:58:41.797Z,49.30
2017-11-16T12:01:22.721Z,49.50
2017-11-16T12:03:53.058Z,52.50
2017-11-16T12:06:21.291Z,48.70
2017-11-16T12:08:49.588Z,49.90
2017-11-16T12:11:17.774Z,47.90
2017-11-16T12:13:46.721Z,48.60
2017-11-16T12:16:15.680Z,48.60
2017-11-16T12:18:43.832Z,52.40
2017-11-16T12:21:11.988Z,49.50
2017-11-16T12:23:41.216Z,50.30
2017-11-16T12:26:09.379Z,48.40
2017-11-16T12:28:37.569Z,49.30
2017-11-16T12:31:05.761Z,48.40
2017-11-16T12:33:37.389Z,49.70
2017-11-16T12:36:05.682Z,48.70
2017-11-16T12:38:33.833Z,49.20
2017-11-16T12:41:02.129Z,48.50
2017-11-16T12:43:36.274Z,48.70
2017-11-16T12:46:05.532Z,48.80
2017-11-16T12:48:33.720Z,48.70
2017-11-16T13:21:22.000Z,47.40
2017-11-16T13:23:50.429Z,47.90
2017-11-16T13:26:19.379Z,49.00
2017-11-16T13:28:47.564Z,50.00
2017-11-16T13:31:15.723Z,48.40
2017-11-16T13:33:43.964Z,48.00
2017-11-16T13:36:12.745Z,46.70
2017-11-16T13:38:40.925Z,47.70
2017-11-16T13:41:09.102Z,47.10
2017-11-16T13:43:40.043Z,46.90
2017-11-16T13:46:08.336Z,47.80
2017-11-16T13:48:36.907Z,48.10
2017-11-16T13:51:06.517Z,48.90
2017-11-16T13:53:40.219Z,49.20
2017-11-16T13:56:10.321Z,49.30
2017-11-16T13:58:39.041Z,47.90
2017-11-16T14:01:07.207Z,49.70
2017-11-16T14:03:37.391Z,49.80
2017-11-16T14:06:06.126Z,49.70
2017-11-16T14:08:34.300Z,50.80
2017-11-16T14:11:02.525Z,52.60
2017-11-16T14:13:38.404Z,50.00
2017-11-16T14:16:07.677Z,51.70
2017-11-16T14:18:42.424Z,53.10
2017-11-16T14:21:10.637Z,50.00
2017-11-16T14:23:39.191Z,52.10
2017-11-16T14:26:08.398Z,51.00
2017-11-16T14:28:37.403Z,49.60
2017-11-16T14:31:05.608Z,49.90
2017-11-16T14:33:39.779Z,49.70
2017-11-16T14:36:09.555Z,50.50
2017-11-16T14:38:38.027Z,52.00
2017-11-16T14:41:08.295Z,53.20
2017-11-16T14:43:40.207Z,52.90
2017-11-16T14:46:09.213Z,51.30
2017-11-16T14:48:37.656Z,51.20
2017-11-16T14:51:05.943Z,50.60
2017-11-16T14:53:36.120Z,52.00
2017-11-16T14:56:04.922Z,53.10
2017-11-16T14:58:33.177Z,52.40
2017-11-16T15:01:01.416Z,54.80
2017-11-16T15:03:32.946Z,52.90
2017-11-16T15:06:03.245Z,54.20
2017-11-16T15:08:31.413Z,50.20
2017-11-16T15:10:59.583Z,51.40
2017-11-16T15:13:30.979Z,51.70
2017-11-16T15:16:00.074Z,51.10
2017-11-16T15:18:29.232Z,51.60
2017-11-16T15:20:57.394Z,51.60
2017-11-16T15:23:26.681Z,53.80
2017-11-16T15:25:55.038Z,53.70
2017-11-16T15:28:23.466Z,55.10
2017-11-16T15:30:51.952Z,55.20
2017-11-16T15:33:22.916Z,55.40
2017-11-16T15:35:52.285Z,55.10
2017-11-16T15:38:23.666Z,55.70
2017-11-16T15:40:52.276Z,55.30
2017-11-16T15:43:23.598Z,57.10
2017-11-16T15:45:51.793Z,57.00
2017-11-16T15:48:21.119Z,58.70
2017-11-16T15:50:49.361Z,55.60
2017-11-16T15:53:17.598Z,54.60
2017-11-16T15:55:46.592Z,55.90
2017-11-16T15:58:14.813Z,57.30
2017-11-16T16:00:42.980Z,57.00
2017-11-16T16:03:11.467Z,56.00
2017-11-16T16:05:39.620Z,52.70
2017-11-16T16:08:09.251Z,55.40
2017-11-16T16:10:37.501Z,51.90
2017-11-16T16:13:30.537Z,54.70
2017-11-16T16:16:05.991Z,55.00
2017-11-16T16:18:34.160Z,55.10
2017-11-16T16:21:08.940Z,53.90
2017-11-16T16:23:42.186Z,53.40
2017-11-16T16:26:10.361Z,53.10
2017-11-16T16:28:41.514Z,54.60
2017-11-16T16:31:09.751Z,54.20
2017-11-16T16:33:57.855Z,53.20
2017-11-16T16:36:27.802Z,55.20
2017-11-16T16:38:58.981Z,56.30
2017-11-16T16:41:27.176Z,53.60
2017-11-16T16:43:55.364Z,54.40
2017-11-16T16:46:24.336Z,54.70
2017-11-16T16:48:52.517Z,52.40
2017-11-16T16:51:20.776Z,52.60
2017-11-16T16:53:49.042Z,53.30
2017-11-16T16:56:17.297Z,55.50
2017-11-16T16:58:45.462Z,55.60
2017-11-16T17:01:13.624Z,54.70
2017-11-16T17:03:46.718Z,53.60
2017-11-16T17:06:14.900Z,53.70
2017-11-16T17:08:45.023Z,52.20
2017-11-16T17:11:13.178Z,53.70
2017-11-16T17:13:44.798Z,51.40
2017-11-16T17:16:13.965Z,51.40
2017-11-16T17:18:42.173Z,53.20
2017-11-16T17:21:10.358Z,51.10
2017-11-16T17:23:45.658Z,51.80
2017-11-16T17:26:13.812Z,54.20
2017-11-16T17:28:41.966Z,53.70
2017-11-16T17:31:10.919Z,53.40
2017-11-16T17:33:45.115Z,53.40
2017-11-16T17:36:22.064Z,53.60
2017-11-16T17:38:50.380Z,54.30
2017-11-16T17:41:24.771Z,52.80
2017-11-16T17:43:56.740Z,53.40
2017-11-16T17:46:25.018Z,52.20
2017-11-16T17:48:53.283Z,51.50
2017-11-16T17:51:21.472Z,50.90
2017-11-16T17:53:49.644Z,51.40
2017-11-16T17:56:17.799Z,51.20
2017-11-16T17:58:45.963Z,51.10
2017-11-16T18:01:14.889Z,50.90
2017-11-16T18:03:44.183Z,51.00
2017-11-16T18:06:12.396Z,53.00
2017-11-16T18:08:40.555Z,51.40
2017-11-16T18:11:08.719Z,53.20
2017-11-16T18:13:40.200Z,51.80
2017-11-16T18:16:08.373Z,52.30
2017-11-16T18:18:36.522Z,54.90
2017-11-16T18:21:06.305Z,52.60
2017-11-16T18:23:37.565Z,51.20
2017-11-16T18:26:06.748Z,54.20
2017-11-16T18:28:36.048Z,52.90
2017-11-16T18:31:04.220Z,53.40
2017-11-16T18:33:32.703Z,54.80
2017-11-16T18:36:00.889Z,54.90
2017-11-16T18:38:29.052Z,57.00
2017-11-16T18:40:57.225Z,57.50
2017-11-16T18:43:25.415Z,55.50
2017-11-16T18:45:53.597Z,56.80
2017-11-16T18:48:21.750Z,53.80
2017-11-16T18:50:49.921Z,54.00
2017-11-16T18:53:19.136Z,53.60
2017-11-16T18:55:47.297Z,53.60
2017-11-16T18:58:16.276Z,54.30
2017-11-16T19:00:44.435Z,54.80
2017-11-16T19:03:13.463Z,53.40
2017-11-16T19:05:42.093Z,53.50
2017-11-16T19:08:10.273Z,54.60
2017-11-16T19:10:38.432Z,57.30
2017-11-16T19:13:07.830Z,58.10
2017-11-16T19:15:36.024Z,56.50
2017-11-16T19:18:05.120Z,58.20
2017-11-16T19:20:33.255Z,55.30
2017-11-16T19:23:01.604Z,54.50
2017-11-16T19:25:30.779Z,56.00
2017-11-16T19:27:59.017Z,56.10
2017-11-16T19:30:27.182Z,57.50
2017-11-16T19:32:56.329Z,56.40
2017-11-16T19:35:25.315Z,54.00
2017-11-16T19:37:54.051Z,54.00
2017-11-16T19:40:22.210Z,55.70
2017-11-16T19:42:50.386Z,53.60
2017-11-16T19:45:18.541Z,54.40
2017-11-16T19:47:47.466Z,55.10
2017-11-16T19:50:16.119Z,55.20
2017-11-16T19:52:45.210Z,57.40
2017-11-16T19:55:13.363Z,57.40
2017-11-16T19:57:42.209Z,57.70
2017-11-16T20:00:10.372Z,58.70
2017-11-16T20:02:38.534Z,58.30
2017-11-16T20:05:06.708Z,61.10
2017-11-16T20:07:34.883Z,60.20
2017-11-16T20:10:03.087Z,58.30
2017-11-16T20:12:31.348Z,58.90
2017-11-16T20:15:05.705Z,58.40
2017-11-16T20:17:37.139Z,59.00
2017-11-16T20:20:10.822Z,57.90
2017-11-16T20:22:38.987Z,58.40
2017-11-16T20:25:07.154Z,59.30
2017-11-16T20:27:35.584Z,60.10
2017-11-16T20:30:04.482Z,59.50
2017-11-16T20:32:34.582Z,58.20
2017-11-16T20:35:02.744Z,60.10
2017-11-16T20:37:36.479Z,59.50
2017-11-16T20:43:22.410Z,59.20
2017-11-16T20:45:56.390Z,59.60
2017-11-16T20:48:30.067Z,59.80
2017-11-16T20:51:13.924Z,61.40
2017-11-16T20:53:42.888Z,57.90
2017-11-16T20:56:11.049Z,57.60
2017-11-16T20:58:39.997Z,56.70
2017-11-16T21:01:08.237Z,56.70
2017-11-16T21:03:36.413Z,57.90
2017-11-16T21:06:04.571Z,58.60
2017-11-16T21:08:32.769Z,58.80
2017-11-16T21:11:01.796Z,61.30
2017-11-16T21:13:33.880Z,62.20
2017-11-16T21:16:02.087Z,61.80
2017-11-16T21:18:31.490Z,59.70
2017-11-16T21:20:59.652Z,60.70
2017-11-16T21:23:35.889Z,60.00
2017-11-16T21:26:05.093Z,60.00
2017-11-16T21:28:33.272Z,60.80
2017-11-16T21:31:01.529Z,64.10
2017-11-16T21:33:29.698Z,63.40
2017-11-16T21:35:58.611Z,64.70
2017-11-16T21:38:26.763Z,64.00
2017-11-16T21:40:54.979Z,64.00
2017-11-16T21:43:23.205Z,60.50
2017-11-16T21:45:51.357Z,62.90
2017-11-16T21:48:19.612Z,63.10
2017-11-16T21:50:50.289Z,60.70
2017-11-16T21:53:22.270Z,62.40
2017-11-16T21:55:50.483Z,62.40
2017-11-16T21:58:19.105Z,61.50
2017-11-16T22:00:47.287Z,62.50
2017-11-16T22:03:15.514Z,60.60
2017-11-16T22:05:43.826Z,59.80
2017-11-16T22:08:12.975Z,60.60
2017-11-16T22:10:41.905Z,64.20
2017-11-16T22:13:13.351Z,64.40
2017-11-16T22:15:41.506Z,63.50
2017-11-16T22:18:10.525Z,64.80
2017-11-16T22:20:39.547Z,67.50
2017-11-16T22:23:08.727Z,64.00
2017-11-16T22:25:36.903Z,63.20
2017-11-16T22:28:05.063Z,64.10
2017-11-16T22:30:33.533Z,65.60
2017-11-16T22:33:01.805Z,65.40
2017-11-16T22:35:30.701Z,63.60
2017-11-16T22:37:58.903Z,66.70
2017-11-16T22:40:27.305Z,64.50
2017-11-16T22:42:56.588Z,62.50
2017-11-16T22:45:24.823Z,61.40
2017-11-16T22:47:53.900Z,62.40
2017-11-16T22:50:22.695Z,63.80
2017-11-16T22:52:51.470Z,62.00
2017-11-16T22:55:19.639Z,64.60
2017-11-16T22:57:47.798Z,65.70
2017-11-16T23:00:15.993Z,67.30
2017-11-16T23:02:45.038Z,65.50
2017-11-16T23:05:13.209Z,65.50
2017-11-16T23:07:41.491Z,66.20
2017-11-16T23:10:09.665Z,65.40
2017-11-16T23:12:37.826Z,64.60
2017-11-16T23:15:06.275Z,64.10
2017-11-16T23:17:34.439Z,64.30
2017-11-16T23:20:03.793Z,62.30
2017-11-16T23:22:32.120Z,62.20
2017-11-16T23:25:01.060Z,63.10
2017-11-16T23:27:29.283Z,63.10
2017-11-16T23:29:57.452Z,64.50
2017-11-16T23:32:25.841Z,63.70
2017-11-16T23:34:54.924Z,63.30
2017-11-16T23:37:23.075Z,62.50
2017-11-16T23:39:51.293Z,62.30
2017-11-16T23:42:20.218Z,62.40
2017-11-16T23:44:49.191Z,62.40
2017-11-16T23:47:18.402Z,62.60
2017-11-16T23:49:46.566Z,61.20
2017-11-16T23:52:14.733Z,62.00
2017-11-16T23:54:42.907Z,62.50
2017-11-16T23:57:11.077Z,61.60
2017-11-16T23:59:40.002Z,62.30
